KFMN/FMN METAR and TAF weather

Enter ICAO airport designator
Station Type Date Time Source
KFMN METAR 2019/10/23 20:53 UTC NOAA

KFMN 232053Z 29018G26KT 7SM CLR 18/M07 A3004 RMK AO2 PK WND 28027/2034 SLP143 T01781067 56029


Station Type Date Time Source
KFMN Decoded METAR 2019/10/23 20:53 UTC NOAA

FARMINGTON FOUR CORNERS, NM, United States (KFMN) 36-45N 108-14W 1685M
Oct 23, 2019 - 04:53 PM EDT / 2019.10.23 2053 UTC
Wind: from the WNW (290 degrees) at 21 MPH (18 KT) gusting to 30 MPH (26 KT):0
Visibility: 7 mile(s):0
Sky conditions: clear
Temperature: 64.0 F (17.8 C)
Dew Point: 19.9 F (-6.7 C)
Relative Humidity: 18%
Pressure (altimeter): 30.04 in. Hg (1017 hPa)
Pressure tendency: 0.09 inches (2.9 hPa) lower than three hours ago
ob: KFMN 232053Z 29018G26KT 7SM CLR 18/M07 A3004 RMK AO2 PK WND 28027/2034 SLP143 T01781067 56029
cycle: 21

Station Type Date Time Source
KFMN TAF 2019/10/23 18:39 UTC NOAA

TAF KFMN 231736Z 2318/2418 27009KT P6SM BKN200
FM232000 28018G28KT P6SM SCT200
FM240200 29009KT P6SM FEW200
FM240600 29013G21KT P6SM FEW200

Example: see airport list